createdAt,value
2023-05-17T00:01:33.875Z,99792.66
2023-05-17T00:06:38.868Z,99795.94
2023-05-17T00:11:43.721Z,99804.03
2023-05-17T00:16:48.992Z,99799.97
2023-05-17T00:21:53.891Z,99798.91
2023-05-17T00:26:58.790Z,99797.56
2023-05-17T00:32:03.934Z,99798.94
2023-05-17T00:37:09.359Z,99806.25
2023-05-17T00:42:14.658Z,99809.78
2023-05-17T00:47:19.708Z,99820.06
2023-05-17T00:52:26.001Z,99828.69
2023-05-17T00:57:31.449Z,99827.59
2023-05-17T01:02:39.672Z,99831.09
2023-05-17T01:07:46.151Z,99863.56
2023-05-17T01:13:05.709Z,99848.34
2023-05-17T01:18:19.133Z,99844.00
2023-05-17T01:23:33.606Z,99835.53
2023-05-17T01:28:40.810Z,99853.16
2023-05-17T01:33:46.643Z,99848.22
2023-05-17T01:38:51.844Z,99845.19
2023-05-17T01:44:19.908Z,99853.78
2023-05-17T01:49:49.737Z,99864.50
2023-05-17T01:55:26.659Z,99869.31
2023-05-17T02:00:32.226Z,99871.13
2023-05-17T02:05:37.093Z,99868.88
2023-05-17T02:10:43.695Z,99865.06
2023-05-17T02:15:48.565Z,99868.25
2023-05-17T02:20:53.714Z,99877.91
2023-05-17T02:25:58.714Z,99878.38
2023-05-17T02:31:04.888Z,99874.81
2023-05-17T02:36:10.012Z,99882.38
2023-05-17T02:41:16.670Z,99877.56
2023-05-17T02:46:22.891Z,99881.78
2023-05-17T02:51:27.896Z,99882.41
2023-05-17T02:56:34.512Z,99893.38
2023-05-17T03:01:39.845Z,99892.84
2023-05-17T03:06:45.039Z,99888.06
2023-05-17T03:11:50.505Z,99888.84
2023-05-17T03:17:02.674Z,99911.38
2023-05-17T03:22:09.950Z,99893.13
2023-05-17T03:27:15.976Z,99902.31
2023-05-17T03:32:21.217Z,99905.84
2023-05-17T03:37:27.832Z,99916.94
2023-05-17T03:42:33.212Z,99921.47
2023-05-17T03:47:38.558Z,99921.28
2023-05-17T03:52:43.674Z,99922.69
2023-05-17T03:57:48.800Z,99923.56
2023-05-17T04:02:54.252Z,99904.91
2023-05-17T04:08:00.163Z,99911.41
2023-05-17T04:13:05.243Z,99929.66
2023-05-17T04:18:10.486Z,99929.16
2023-05-17T04:23:16.724Z,99929.44
2023-05-17T04:28:23.249Z,99934.59
2023-05-17T04:33:28.781Z,99938.41
2023-05-17T04:38:33.914Z,99948.13
2023-05-17T04:43:39.498Z,99950.03
2023-05-17T04:48:50.833Z,99950.88
2023-05-17T04:53:56.156Z,99945.75
2023-05-17T04:59:01.112Z,99937.41
2023-05-17T05:04:08.322Z,99932.09
2023-05-17T05:09:18.709Z,99957.06
2023-05-17T05:14:24.774Z,99945.22
2023-05-17T05:19:29.753Z,99961.78
2023-05-17T05:24:35.880Z,99964.28
2023-05-17T05:29:41.085Z,99957.84
2023-05-17T05:34:46.816Z,99962.75
2023-05-17T05:39:52.424Z,99961.72
2023-05-17T05:44:57.984Z,99966.31
2023-05-17T05:50:04.102Z,99966.34
2023-05-17T05:55:10.319Z,99961.47
2023-05-17T06:00:15.914Z,99950.09
2023-05-17T06:05:20.838Z,99961.22
2023-05-17T06:10:26.252Z,99955.81
2023-05-17T06:15:32.908Z,99952.31
2023-05-17T06:20:37.867Z,99952.56
2023-05-17T06:25:43.402Z,99965.03
2023-05-17T06:30:48.543Z,99945.00
2023-05-17T06:35:55.993Z,99962.88
2023-05-17T06:41:02.417Z,99965.03
2023-05-17T06:46:07.204Z,99952.56
2023-05-17T06:51:12.407Z,99981.28
2023-05-17T06:56:17.680Z,99941.75
2023-05-17T07:01:22.544Z,99966.66
2023-05-17T07:06:27.673Z,99958.00
2023-05-17T07:11:32.841Z,99993.72
2023-05-17T07:16:37.727Z,99969.38
2023-05-17T07:21:43.069Z,99962.88
2023-05-17T07:26:49.307Z,99961.78
2023-05-17T07:31:56.024Z,99966.94
2023-05-17T07:37:00.552Z,99974.22
2023-05-17T07:42:05.934Z,99964.50
2023-05-17T07:47:10.922Z,99966.38
2023-05-17T07:52:16.956Z,99954.47
2023-05-17T07:57:21.723Z,99962.06
2023-05-17T08:02:28.052Z,99962.34
2023-05-17T08:07:33.125Z,99968.81
2023-05-17T08:12:39.626Z,99966.09
2023-05-17T08:17:45.018Z,99975.31
2023-05-17T08:22:50.114Z,99989.38
2023-05-17T08:27:55.086Z,100000.75
2023-05-17T08:33:00.320Z,100002.34
2023-05-17T08:38:05.891Z,100014.56
2023-05-17T08:43:15.995Z,100028.34
2023-05-17T08:48:21.737Z,100028.09
2023-05-17T08:53:28.076Z,100035.09
2023-05-17T08:58:55.597Z,100021.84
2023-05-17T09:04:02.890Z,100042.94
2023-05-17T09:09:10.844Z,100041.34
2023-05-17T09:14:20.900Z,100079.50
2023-05-17T09:19:25.806Z,100045.38
2023-05-17T09:24:34.312Z,100049.16
2023-05-17T09:29:42.029Z,100060.75
2023-05-17T09:34:49.543Z,100053.16
2023-05-17T09:39:56.945Z,100055.56
2023-05-17T09:45:03.223Z,100066.09
2023-05-17T09:50:09.597Z,100080.38
2023-05-17T09:55:14.853Z,100086.84
2023-05-17T10:00:23.425Z,100093.00
2023-05-17T10:05:29.374Z,100101.38
2023-05-17T10:10:37.701Z,100120.00
2023-05-17T10:15:44.622Z,100135.06
2023-05-17T10:20:50.447Z,100138.00
2023-05-17T10:25:56.743Z,100156.56
2023-05-17T10:31:03.021Z,100163.84
2023-05-17T10:36:08.950Z,100165.94
2023-05-17T10:41:18.935Z,100163.44
2023-05-17T10:46:26.224Z,100163.94
2023-05-17T10:51:37.731Z,100183.06
2023-05-17T10:57:08.923Z,100177.31
2023-05-17T11:02:14.446Z,100187.00
2023-05-17T11:07:29.147Z,100197.72
2023-05-17T11:12:43.130Z,100194.06
2023-05-17T11:17:58.348Z,100207.75
2023-05-17T11:23:06.130Z,100221.66
2023-05-17T11:28:23.372Z,100217.84
2023-05-17T11:33:41.737Z,100250.84
2023-05-17T11:38:55.251Z,100241.63
2023-05-17T11:44:08.211Z,100261.00
2023-05-17T11:49:20.279Z,100294.38
2023-05-17T11:54:34.332Z,100303.19
2023-05-17T11:59:41.572Z,100316.00
2023-05-17T12:04:48.662Z,100334.00
2023-05-17T12:10:07.222Z,100358.41
2023-05-17T12:15:21.856Z,100361.84
2023-05-17T12:20:27.785Z,100385.75
2023-05-17T12:25:33.502Z,100387.81
2023-05-17T12:30:39.187Z,100399.81
2023-05-17T12:35:44.836Z,100397.44
2023-05-17T12:40:50.924Z,100409.09
2023-05-17T12:45:56.813Z,100412.28
2023-05-17T12:51:07.970Z,100423.78
2023-05-17T12:56:23.504Z,100442.66
2023-05-17T13:01:34.182Z,100454.28
2023-05-17T13:07:07.858Z,100456.53
2023-05-17T13:12:13.228Z,100476.47
2023-05-17T13:17:27.620Z,100475.16
2023-05-17T13:22:33.012Z,100484.91
2023-05-17T13:27:38.611Z,100488.31
2023-05-17T13:32:44.590Z,100495.19
2023-05-17T13:37:50.381Z,100503.16
2023-05-17T13:42:55.889Z,100513.09
2023-05-17T13:48:01.495Z,100507.06
2023-05-17T13:53:07.286Z,100510.81
2023-05-17T13:58:13.185Z,100515.97
2023-05-17T14:03:19.463Z,100513.94
2023-05-17T14:08:25.215Z,100527.41
2023-05-17T14:13:31.247Z,100554.53
2023-05-17T14:18:37.274Z,100539.09
2023-05-17T14:23:42.545Z,100546.44
2023-05-17T14:28:51.316Z,100548.63
2023-05-17T14:33:57.010Z,100554.44
2023-05-17T14:39:03.130Z,100560.06
2023-05-17T14:44:09.069Z,100558.44
2023-05-17T14:49:15.086Z,100564.25
2023-05-17T14:54:20.617Z,100564.91
2023-05-17T14:59:27.081Z,100580.69
2023-05-17T15:04:33.055Z,100575.63
2023-05-17T15:09:43.005Z,100573.63
2023-05-17T15:14:49.091Z,100582.16
2023-05-17T15:19:55.067Z,100572.09
2023-05-17T15:25:01.066Z,100564.56
2023-05-17T15:30:06.985Z,100566.66
2023-05-17T15:35:12.898Z,100574.56
2023-05-17T15:40:18.944Z,100604.63
2023-05-17T15:45:24.712Z,100571.56
2023-05-17T15:50:30.362Z,100573.50
2023-05-17T15:55:36.039Z,100560.78
2023-05-17T16:00:41.736Z,100566.63
2023-05-17T16:05:48.284Z,100563.19
2023-05-17T16:10:54.370Z,100564.31
2023-05-17T16:16:01.380Z,100563.94
2023-05-17T16:21:07.449Z,100566.88
2023-05-17T16:26:13.322Z,100569.38
2023-05-17T16:31:19.264Z,100562.81
2023-05-17T16:36:24.757Z,100554.22
2023-05-17T16:41:32.641Z,100561.72
2023-05-17T16:46:39.561Z,100566.75
2023-05-17T16:51:46.719Z,100563.28
2023-05-17T16:56:52.341Z,100569.69
2023-05-17T17:01:58.031Z,100560.25
2023-05-17T17:07:04.202Z,100552.66
2023-05-17T17:12:22.985Z,100553.69
2023-05-17T17:17:31.431Z,100552.66
2023-05-17T17:22:37.561Z,100547.06
2023-05-17T17:27:43.791Z,100550.78
2023-05-17T17:32:49.702Z,100560.84
2023-05-17T17:37:55.609Z,100563.13
2023-05-17T17:43:01.191Z,100560.84
2023-05-17T17:48:07.193Z,100564.34
2023-05-17T17:53:12.629Z,100577.16
2023-05-17T17:58:18.833Z,100581.72
2023-05-17T18:03:24.381Z,100605.22
2023-05-17T18:08:29.823Z,100571.41
2023-05-17T18:13:35.321Z,100565.88
2023-05-17T18:18:42.097Z,100563.63
2023-05-17T18:23:47.608Z,100565.34
2023-05-17T18:28:53.089Z,100561.88
2023-05-17T18:33:58.746Z,100593.03
2023-05-17T18:39:04.616Z,100553.69
2023-05-17T18:44:09.891Z,100554.59
2023-05-17T18:49:19.267Z,100556.50
2023-05-17T18:54:24.852Z,100557.56
2023-05-17T18:59:33.744Z,100557.00
2023-05-17T19:04:39.110Z,100560.28
2023-05-17T19:09:44.114Z,100556.56
2023-05-17T19:14:49.004Z,100556.38
2023-05-17T19:19:54.187Z,100559.47
2023-05-17T19:24:59.331Z,100580.47
2023-05-17T19:30:04.924Z,100548.56
2023-05-17T19:35:11.468Z,100557.00
2023-05-17T19:40:20.880Z,100552.06
2023-05-17T19:45:25.857Z,100542.63
2023-05-17T19:50:31.885Z,100552.06
2023-05-17T19:55:37.937Z,100549.63
2023-05-17T20:00:43.202Z,100559.88
2023-05-17T20:05:48.438Z,100549.78
2023-05-17T20:10:53.501Z,100548.97
2023-05-17T20:15:58.559Z,100551.44
2023-05-17T20:21:03.551Z,100554.53
2023-05-17T20:26:08.714Z,100551.66
2023-05-17T20:31:14.833Z,100555.78
2023-05-17T20:36:19.695Z,100554.72
2023-05-17T20:41:25.313Z,100558.06
2023-05-17T20:46:33.781Z,100574.72
2023-05-17T20:51:40.514Z,100571.44
2023-05-17T20:56:45.581Z,100577.81
2023-05-17T21:01:50.520Z,100602.66
2023-05-17T21:06:59.284Z,100582.72
2023-05-17T21:12:04.284Z,100579.03
2023-05-17T21:17:09.329Z,100589.31
2023-05-17T21:22:14.473Z,100587.66
2023-05-17T21:27:19.660Z,100594.88
2023-05-17T21:32:24.801Z,100596.91
2023-05-17T21:37:29.968Z,100609.03
2023-05-17T21:42:39.102Z,100622.81
2023-05-17T21:47:45.831Z,100614.16
2023-05-17T21:52:50.856Z,100615.59
2023-05-17T21:57:56.633Z,100620.75
2023-05-17T22:03:03.106Z,100680.19
2023-05-17T22:08:08.161Z,100623.25
2023-05-17T22:13:13.517Z,100634.75
2023-05-17T22:18:21.776Z,100638.88
2023-05-17T22:23:27.769Z,100628.59
2023-05-17T22:28:32.668Z,100629.41
2023-05-17T22:33:37.810Z,100671.41
2023-05-17T22:38:47.282Z,100639.72
2023-05-17T22:43:53.349Z,100638.94
2023-05-17T22:49:00.462Z,100639.75
2023-05-17T22:54:05.432Z,100652.50
2023-05-17T22:59:10.767Z,100645.91
2023-05-17T23:04:15.851Z,100652.88
2023-05-17T23:09:20.680Z,100658.19
2023-05-17T23:14:25.547Z,100659.38
2023-05-17T23:19:34.877Z,100661.88
2023-05-17T23:24:40.627Z,100666.34
2023-05-17T23:29:44.881Z,100661.75
2023-05-17T23:34:50.911Z,100654.47
2023-05-17T23:39:55.989Z,100654.16
2023-05-17T23:45:04.787Z,100670.38
2023-05-17T23:50:10.955Z,100655.03
2023-05-17T23:55:15.944Z,100647.72
